Time;durP1;ratioP1;P1;durP2;ratioP2;P2;SDS_P1;SDS_P2;PMS_P1;PMS_P2;Temp;Humidity;BMP_temperature;BMP_pressure;BME280_temperature;BME280_humidity;BME280_pressure;Samples;Min_cycle;Max_cycle;Signal;HPM_P1;HPM_P2
2022/07/28 00:03:53;;;;;;;1.92;1.70;;;30.20;56.70;;;;;;10858888;32;20024;-72
2022/07/28 00:09:57;;;;;;;1.85;1.30;;;30.30;56.40;;;;;;10871960;32;20038;-72
2022/07/28 00:16:02;;;;;;;3.12;1.58;;;30.40;55.90;;;;;;10871551;32;20035;-72
2022/07/28 00:22:06;;;;;;;2.80;1.73;;;30.40;55.70;;;;;;10871594;32;20024;-72
2022/07/28 00:28:08;;;;;;;2.85;1.40;;;30.40;55.80;;;;;;10871263;32;20028;-72
2022/07/28 00:34:12;;;;;;;7.40;1.77;;;30.30;56.00;;;;;;10871036;32;20400;-72
2022/07/28 00:46:55;;;;;;;1.48;1.23;;;30.30;56.60;;;;;;10870404;32;20024;-72
2022/07/28 00:52:57;;;;;;;1.62;1.10;;;30.20;56.70;;;;;;10870345;32;20056;-72
2022/07/28 00:58:59;;;;;;;3.92;1.55;;;30.30;56.50;;;;;;10870059;32;20054;-72
2022/07/28 01:05:02;;;;;;;1.95;1.37;;;30.20;56.60;;;;;;10869898;32;20348;-72
2022/07/28 01:11:14;;;;;;;1.90;1.10;;;30.10;56.80;;;;;;10869730;32;20024;-72
2022/07/28 01:17:33;;;;;;;1.65;1.17;;;30.10;57.00;;;;;;10869476;32;20028;-72
2022/07/28 01:24:20;;;;;;;1.35;1.05;;;30.10;56.80;;;;;;10870007;32;20020;-72
2022/07/28 01:30:28;;;;;;;3.62;1.55;;;30.10;56.80;;;;;;10869045;32;20062;-72
2022/07/28 01:36:41;;;;;;;1.70;1.17;;;30.10;56.60;;;;;;10868801;32;20434;-72
2022/07/28 01:42:47;;;;;;;2.00;1.23;;;30.00;56.30;;;;;;10868531;32;20032;-72
2022/07/28 01:48:51;;;;;;;1.58;1.02;;;30.00;56.30;;;;;;10868354;32;20027;-72
2022/07/28 01:54:55;;;;;;;1.87;1.20;;;29.90;56.20;;;;;;10867992;32;20058;-72
2022/07/28 02:00:59;;;;;;;2.10;0.98;;;29.90;55.90;;;;;;10863391;32;20059;-72
2022/07/28 02:07:02;;;;;;;0.85;0.80;;;29.80;55.90;;;;;;10868023;32;20050;-72
2022/07/28 02:13:05;;;;;;;1.62;1.20;;;29.80;56.10;;;;;;10867766;32;20024;-72
2022/07/28 02:19:09;;;;;;;1.85;1.17;;;29.80;56.00;;;;;;10867454;32;20434;-72
2022/07/28 02:25:11;;;;;;;2.42;1.23;;;29.80;55.70;;;;;;10854236;32;20020;-72
2022/07/28 02:31:23;;;;;;;1.62;1.23;;;29.70;55.60;;;;;;10867218;32;20046;-72
2022/07/28 02:37:31;;;;;;;2.42;1.15;;;29.60;55.80;;;;;;10867135;32;20028;-72
2022/07/28 02:43:37;;;;;;;6.30;1.23;;;29.50;55.80;;;;;;10867177;32;20020;-72
2022/07/28 02:49:40;;;;;;;2.55;0.88;;;29.50;55.80;;;;;;10866829;32;20091;-72
2022/07/28 02:55:46;;;;;;;1.15;0.82;;;29.40;56.00;;;;;;10866728;32;20035;-72
2022/07/28 03:01:49;;;;;;;2.60;1.00;;;29.30;56.00;;;;;;10866702;32;20024;-72
2022/07/28 03:07:51;;;;;;;1.37;1.05;;;29.20;56.40;;;;;;10867815;32;20028;-72
2022/07/28 03:13:53;;;;;;;1.17;0.82;;;29.20;56.30;;;;;;10873913;32;20046;-72
2022/07/28 03:19:56;;;;;;;2.20;1.20;;;29.10;56.40;;;;;;10872783;32;20058;-72
2022/07/28 03:26:05;;;;;;;1.45;1.02;;;29.00;56.50;;;;;;10873486;32;20015;-72
2022/07/28 03:32:08;;;;;;;1.70;1.00;;;28.90;56.60;;;;;;10873217;32;20101;-72
2022/07/28 03:38:13;;;;;;;1.37;0.85;;;29.00;56.40;;;;;;10872933;32;20035;-72
2022/07/28 03:44:16;;;;;;;1.85;1.17;;;29.00;56.30;;;;;;10872865;32;20074;-72
2022/07/28 03:50:25;;;;;;;1.75;1.15;;;29.00;56.10;;;;;;10872847;32;20039;-72
2022/07/28 03:56:27;;;;;;;1.67;0.90;;;29.00;56.20;;;;;;10872351;32;20028;-72
2022/07/28 04:02:29;;;;;;;1.92;1.05;;;29.00;56.10;;;;;;10872268;32;20042;-72
2022/07/28 04:08:31;;;;;;;0.95;0.73;;;28.90;56.10;;;;;;10872077;32;20289;-72
2022/07/28 04:14:33;;;;;;;2.67;1.85;;;28.90;56.20;;;;;;10871493;32;20027;-72
2022/07/28 04:20:35;;;;;;;1.30;1.10;;;28.90;56.20;;;;;;10871008;32;20062;-71
2022/07/28 04:26:37;;;;;;;0.82;0.60;;;28.80;56.30;;;;;;10871511;32;20364;-72
2022/07/28 04:32:40;;;;;;;3.87;1.35;;;28.70;56.50;;;;;;10909017;27;20028;-72
2022/07/28 04:38:42;;;;;;;2.37;1.12;;;28.70;56.70;;;;;;10908264;32;20047;-72
2022/07/28 04:44:44;;;;;;;1.70;1.02;;;28.80;56.70;;;;;;10907958;32;20034;-72
2022/07/28 04:50:46;;;;;;;2.33;1.37;;;28.80;56.70;;;;;;10907924;32;20380;-72
2022/07/28 04:56:48;;;;;;;3.00;1.48;;;28.80;56.50;;;;;;10907504;32;20053;-72
2022/07/28 05:02:50;;;;;;;2.08;1.55;;;28.80;56.40;;;;;;10907215;32;20054;-72
2022/07/28 05:08:52;;;;;;;2.78;1.60;;;28.80;56.50;;;;;;10907190;32;20019;-72
2022/07/28 05:14:55;;;;;;;2.78;1.65;;;28.80;56.60;;;;;;10906911;32;20392;-72
2022/07/28 05:20:57;;;;;;;1.27;0.90;;;28.80;56.50;;;;;;10906670;32;20074;-72
2022/07/28 05:26:59;;;;;;;1.35;1.10;;;28.80;56.70;;;;;;10906601;32;20426;-72
2022/07/28 05:33:25;;;;;;;1.40;1.10;;;28.80;56.80;;;;;;10905646;32;20038;-72
2022/07/28 05:39:33;;;;;;;1.58;1.30;;;28.80;56.80;;;;;;10892747;32;20063;-72
2022/07/28 05:45:35;;;;;;;2.42;1.42;;;28.90;56.80;;;;;;10905746;32;20027;-72
2022/07/28 05:51:37;;;;;;;2.22;1.60;;;28.90;57.10;;;;;;10905674;32;20181;-71
2022/07/28 05:57:40;;;;;;;4.20;2.25;;;28.90;57.30;;;;;;10891881;32;20073;-70
2022/07/28 06:03:42;;;;;;;2.53;1.73;;;29.00;56.80;;;;;;10905307;32;20027;-72
2022/07/28 06:09:44;;;;;;;6.95;2.37;;;29.00;57.20;;;;;;10891866;32;20425;-68
2022/07/28 06:15:47;;;;;;;4.57;2.87;;;29.10;57.40;;;;;;10903247;32;20054;-67
2022/07/28 06:22:43;;;;;;;5.40;3.15;;;29.00;57.70;;;;;;10904710;32;20027;-69
2022/07/28 06:28:45;;;;;;;4.45;3.12;;;29.20;57.60;;;;;;10789193;33;20055;-67
2022/07/28 06:34:48;;;;;;;5.82;3.58;;;29.30;57.50;;;;;;10785520;33;20384;-70
2022/07/28 06:40:59;;;;;;;5.90;3.28;;;29.40;57.40;;;;;;10785209;33;20032;-69
2022/07/28 06:47:02;;;;;;;4.72;2.67;;;29.40;57.10;;;;;;10799318;33;20417;-68
2022/07/28 06:53:05;;;;;;;5.60;4.00;;;29.50;56.00;;;;;;10800186;33;20066;-69
2022/07/28 06:59:06;;;;;;;6.70;4.07;;;29.40;56.00;;;;;;10768183;33;20036;-68
2022/07/28 07:05:10;;;;;;;7.18;4.55;;;29.50;56.20;;;;;;10894570;32;20023;-68
2022/07/28 07:11:13;;;;;;;7.45;5.18;;;29.60;56.30;;;;;;10916282;32;20031;-68
2022/07/28 07:17:16;;;;;;;6.15;4.25;;;29.60;55.50;;;;;;10902809;32;20384;-68
2022/07/28 07:23:18;;;;;;;7.12;5.07;;;29.70;55.20;;;;;;10916133;32;20070;-67
2022/07/28 07:29:21;;;;;;;6.90;3.47;;;29.80;55.30;;;;;;10913766;32;20019;-69
2022/07/28 07:35:24;;;;;;;6.87;4.45;;;29.80;55.30;;;;;;10915621;32;20031;-70
2022/07/28 07:41:26;;;;;;;6.37;4.12;;;29.80;54.80;;;;;;10914213;32;20388;-70
2022/07/28 07:47:37;;;;;;;5.65;3.65;;;29.90;54.40;;;;;;10898813;32;20051;-68
2022/07/28 07:53:39;;;;;;;6.00;4.03;;;30.10;54.70;;;;;;10914564;32;20435;-68
2022/07/28 07:59:41;;;;;;;9.63;5.05;;;30.30;54.70;;;;;;10886222;32;20348;-68
2022/07/28 08:05:44;;;;;;;6.43;4.22;;;30.30;54.00;;;;;;10870390;32;20035;-70
2022/07/28 08:11:46;;;;;;;4.65;3.10;;;30.40;53.40;;;;;;10868931;32;20050;-70
2022/07/28 08:17:49;;;;;;;6.65;4.20;;;30.50;53.00;;;;;;10876521;32;20345;-70
2022/07/28 08:23:54;;;;;;;7.45;4.60;;;30.70;52.20;;;;;;10885280;32;20116;-70
2022/07/28 08:29:59;;;;;;;7.03;4.87;;;30.70;52.40;;;;;;10871440;32;20051;-67
2022/07/28 08:36:01;;;;;;;8.30;5.75;;;30.80;51.30;;;;;;10870200;32;20023;-68
2022/07/28 08:42:25;;;;;;;9.50;5.30;;;30.90;51.10;;;;;;10866652;32;20149;-69
2022/07/28 08:48:36;;;;;;;8.52;5.90;;;30.90;51.10;;;;;;10870702;32;20019;-69
2022/07/28 08:54:44;;;;;;;6.10;4.25;;;31.00;50.00;;;;;;10869374;32;20069;-70
2022/07/28 09:00:46;;;;;;;7.57;5.12;;;31.20;50.20;;;;;;10869338;32;20012;-72
2022/07/28 09:06:49;;;;;;;6.82;5.43;;;31.30;49.90;;;;;;10868941;32;20089;-71
2022/07/28 09:12:51;;;;;;;6.78;4.57;;;31.40;48.80;;;;;;10869685;32;20024;-71
2022/07/28 09:18:53;;;;;;;7.57;5.30;;;31.60;48.50;;;;;;10869430;32;20031;-72
2022/07/28 09:24:55;;;;;;;8.30;4.95;;;31.60;48.20;;;;;;10868434;32;20042;-71
2022/07/28 09:31:06;;;;;;;6.93;3.92;;;31.80;48.10;;;;;;10868939;32;20019;-71
2022/07/28 09:37:18;;;;;;;5.97;4.60;;;31.80;47.90;;;;;;10868808;32;20063;-70
2022/07/28 09:43:34;;;;;;;8.43;4.85;;;32.00;47.60;;;;;;10868350;32;20062;-71
2022/07/28 09:49:41;;;;;;;5.20;3.45;;;32.10;47.10;;;;;;10870097;32;20073;-70
2022/07/28 09:55:54;;;;;;;8.85;4.80;;;32.30;46.70;;;;;;10878904;32;20050;-70
2022/07/28 10:01:59;;;;;;;5.30;3.78;;;32.40;46.20;;;;;;10873033;32;20027;-69
2022/07/28 10:08:01;;;;;;;10.07;4.85;;;32.40;46.10;;;;;;10863776;32;20023;-70
2022/07/28 10:14:07;;;;;;;7.28;4.65;;;32.60;45.60;;;;;;10866701;32;20034;-71
2022/07/28 10:20:09;;;;;;;8.50;4.00;;;32.70;45.30;;;;;;10867032;32;20478;-71
2022/07/28 10:26:13;;;;;;;5.30;4.07;;;32.80;44.90;;;;;;10863643;32;20336;-71
2022/07/28 10:32:15;;;;;;;7.45;4.60;;;32.90;44.60;;;;;;10867137;32;20020;-72
2022/07/28 10:38:20;;;;;;;7.57;4.30;;;32.90;45.60;;;;;;10867001;32;20426;-70
2022/07/28 10:44:23;;;;;;;4.87;3.37;;;32.90;45.10;;;;;;10867056;32;20046;-72
2022/07/28 10:50:26;;;;;;;4.32;3.08;;;33.20;44.30;;;;;;10866973;32;20392;-71
2022/07/28 10:56:45;;;;;;;5.97;4.40;;;33.50;43.70;;;;;;10864082;32;20050;-72
2022/07/28 11:02:59;;;;;;;10.48;4.43;;;33.80;42.90;;;;;;10866784;32;20019;-72
2022/07/28 11:09:16;;;;;;;3.33;2.35;;;33.90;43.00;;;;;;10866649;32;20047;-72
2022/07/28 11:15:30;;;;;;;8.70;4.15;;;34.10;42.70;;;;;;10862312;32;20098;-71
2022/07/28 11:21:34;;;;;;;5.10;3.78;;;34.30;42.40;;;;;;10866475;32;20043;-72
2022/07/28 11:28:13;;;;;;;9.35;3.33;;;34.40;42.20;;;;;;10487959;32;12284518;-69
2022/07/28 11:34:23;;;;;;;3.17;2.25;;;34.70;41.50;;;;;;10795912;33;20032;-69
2022/07/28 11:40:35;;;;;;;7.47;3.00;;;35.00;40.40;;;;;;10796132;33;20059;-71
2022/07/28 11:46:38;;;;;;;2.97;1.90;;;35.10;40.20;;;;;;10796383;33;20021;-72
2022/07/28 11:53:09;;;;;;;4.95;3.33;;;35.30;40.40;;;;;;10795417;33;20586;-71
2022/07/28 11:59:12;;;;;;;4.15;2.33;;;35.60;39.70;;;;;;10872452;32;20024;-72
2022/07/28 12:05:16;;;;;;;7.15;2.75;;;35.60;39.60;;;;;;10859472;32;20365;-70
2022/07/28 12:11:20;;;;;;;4.25;2.72;;;35.90;39.00;;;;;;10872015;32;20046;-71
2022/07/28 12:17:32;;;;;;;6.40;2.17;;;35.70;40.10;;;;;;10871561;32;20031;-71
2022/07/28 12:24:12;;;;;;;4.07;2.58;;;35.50;39.90;;;;;;10871587;32;20301;-72
2022/07/28 12:30:23;;;;;;;6.30;2.60;;;35.60;39.40;;;;;;10894558;27;20049;-72
2022/07/28 12:36:27;;;;;;;3.30;2.20;;;35.70;39.40;;;;;;10895080;32;20106;-72
2022/07/28 12:42:31;;;;;;;12.23;3.70;;;35.90;39.00;;;;;;10907908;32;20422;-70
2022/07/28 12:48:38;;;;;;;7.70;2.47;;;35.90;39.00;;;;;;10907957;32;20015;-72
2022/07/28 12:54:40;;;;;;;4.30;2.50;;;35.80;38.60;;;;;;10907881;32;20033;-71
2022/07/28 13:00:49;;;;;;;21.90;3.35;;;35.80;38.60;;;;;;10907706;32;20038;-71
2022/07/28 13:06:55;;;;;;;4.03;2.40;;;35.80;38.50;;;;;;10907554;32;20015;-71
2022/07/28 13:13:06;;;;;;;5.78;3.25;;;35.80;38.30;;;;;;10907202;32;20038;-70
2022/07/28 13:19:20;;;;;;;6.85;3.08;;;35.80;38.30;;;;;;10906820;32;20081;-71
2022/07/28 13:25:23;;;;;;;4.12;2.65;;;35.40;38.30;;;;;;10906401;32;20053;-71
2022/07/28 13:31:25;;;;;;;4.68;2.92;;;35.30;38.70;;;;;;10879772;32;20031;-71
2022/07/28 13:37:31;;;;;;;5.70;2.70;;;35.40;38.50;;;;;;10869620;32;20066;-71
2022/07/28 13:43:33;;;;;;;3.70;2.40;;;35.30;39.10;;;;;;10864391;32;20020;-72
2022/07/28 13:49:36;;;;;;;5.57;3.47;;;35.40;39.10;;;;;;10879075;32;20040;-71
2022/07/28 13:55:38;;;;;;;4.35;2.17;;;35.40;39.50;;;;;;10874406;32;20059;-71
2022/07/28 14:01:40;;;;;;;3.95;2.65;;;35.10;39.90;;;;;;10867928;32;20015;-69
2022/07/28 14:07:43;;;;;;;4.50;2.70;;;35.00;40.20;;;;;;10868134;32;20019;-72
2022/07/28 14:20:14;;;;;;;3.30;2.15;;;35.00;40.00;;;;;;10902455;32;20384;-71
2022/07/28 14:26:17;;;;;;;4.55;3.03;;;34.90;40.30;;;;;;10903700;32;20031;-71
2022/07/28 14:32:19;;;;;;;4.30;2.45;;;34.80;40.20;;;;;;10903781;32;20051;-72
2022/07/28 14:38:21;;;;;;;3.50;2.25;;;34.70;40.10;;;;;;10901806;32;20027;-71
2022/07/28 14:44:23;;;;;;;4.78;3.25;;;34.60;41.20;;;;;;10904363;32;20095;-71
2022/07/28 14:50:25;;;;;;;11.70;2.45;;;34.60;40.90;;;;;;10904214;32;20054;-71
2022/07/28 14:56:27;;;;;;;6.20;1.92;;;34.70;40.70;;;;;;10879774;32;20051;-71
2022/07/28 15:02:29;;;;;;;5.72;2.55;;;34.80;40.70;;;;;;10863704;32;20020;-71
2022/07/28 15:08:32;;;;;;;4.62;3.25;;;34.80;40.40;;;;;;10869155;32;20015;-69
2022/07/28 15:14:57;;;;;;;6.37;3.42;;;34.80;40.70;;;;;;10873670;32;20328;-70
2022/07/28 15:21:46;;;;;;;2.92;1.83;;;34.70;42.20;;;;;;10873766;32;20020;-71
2022/07/28 15:27:48;;;;;;;3.35;2.10;;;34.70;41.40;;;;;;10869008;32;20090;-71
2022/07/28 15:33:51;;;;;;;4.45;2.58;;;34.90;41.20;;;;;;10871755;32;20434;-71
2022/07/28 15:40:10;;;;;;;5.57;2.42;;;34.90;41.10;;;;;;10872597;32;20031;-70
2022/07/28 15:46:12;;;;;;;3.78;2.28;;;34.90;41.00;;;;;;10868503;32;20298;-72
2022/07/28 15:52:15;;;;;;;4.97;2.20;;;35.10;40.60;;;;;;10872449;32;20054;-71
2022/07/28 15:58:19;;;;;;;4.25;2.53;;;35.10;40.60;;;;;;10872158;32;20058;-71
2022/07/28 16:04:21;;;;;;;7.40;2.17;;;35.10;41.00;;;;;;10871697;32;20012;-72
2022/07/28 16:10:24;;;;;;;3.47;2.20;;;35.00;41.00;;;;;;10871622;32;20008;-71
2022/07/28 16:16:29;;;;;;;2.70;2.03;;;35.10;40.80;;;;;;10873535;32;20032;-71
2022/07/28 16:22:31;;;;;;;4.20;2.28;;;35.10;40.60;;;;;;10871680;32;20015;-71
2022/07/28 16:28:33;;;;;;;3.30;2.00;;;35.10;40.20;;;;;;10879606;32;20301;-71
2022/07/28 16:34:35;;;;;;;3.47;1.52;;;35.00;39.90;;;;;;10874451;32;20042;-71
2022/07/28 16:40:38;;;;;;;2.65;1.42;;;35.00;40.20;;;;;;10870866;32;20098;-71
2022/07/28 16:46:43;;;;;;;5.50;1.70;;;35.00;40.30;;;;;;10870795;32;20019;-71
2022/07/28 16:53:09;;;;;;;2.30;1.60;;;34.80;40.20;;;;;;10870729;32;20028;-71
2022/07/28 16:59:14;;;;;;;2.60;1.40;;;34.70;40.10;;;;;;10791248;33;20032;-71
2022/07/28 17:05:16;;;;;;;3.50;1.73;;;34.60;40.30;;;;;;10780755;33;20055;-71
2022/07/28 17:11:18;;;;;;;2.08;1.33;;;34.50;40.30;;;;;;10792526;33;20040;-71
2022/07/28 17:17:45;;;;;;;2.75;1.50;;;34.40;40.50;;;;;;10784752;33;20033;-71
2022/07/28 17:23:47;;;;;;;1.75;1.35;;;34.40;40.50;;;;;;10776367;33;20028;-71
2022/07/28 17:29:48;;;;;;;2.03;1.30;;;34.30;40.70;;;;;;10791393;33;20082;-71
2022/07/28 17:35:53;;;;;;;4.20;2.12;;;34.20;40.90;;;;;;10841795;32;20073;-71
2022/07/28 17:41:56;;;;;;;7.30;1.50;;;34.10;41.00;;;;;;10855784;32;20046;-71
2022/07/28 17:47:58;;;;;;;2.40;1.73;;;34.30;40.70;;;;;;10855239;32;20055;-71
2022/07/28 17:54:01;;;;;;;1.98;1.23;;;35.40;39.10;;;;;;10868502;32;20050;-71
2022/07/28 18:00:05;;;;;;;6.87;2.12;;;35.60;39.00;;;;;;10867364;32;20032;-71
2022/07/28 18:06:13;;;;;;;3.33;1.52;;;35.30;39.70;;;;;;10868174;32;20024;-71
2022/07/28 18:12:16;;;;;;;3.00;1.50;;;34.60;40.90;;;;;;10865473;32;20042;-71
2022/07/28 18:18:20;;;;;;;3.30;2.10;;;34.20;41.70;;;;;;10867619;32;20028;-71
2022/07/28 18:24:23;;;;;;;3.35;1.92;;;33.90;42.30;;;;;;10866353;32;20038;-71
2022/07/28 18:30:26;;;;;;;2.08;1.25;;;33.70;42.80;;;;;;10863163;32;20392;-71
2022/07/28 18:36:30;;;;;;;4.15;1.98;;;33.40;43.20;;;;;;10867098;32;20050;-71
2022/07/28 18:42:32;;;;;;;6.65;2.17;;;33.30;43.60;;;;;;10866636;32;20327;-71
2022/07/28 18:48:34;;;;;;;7.50;2.30;;;33.20;44.00;;;;;;10866775;32;20016;-71
2022/07/28 18:54:36;;;;;;;2.28;1.75;;;33.00;44.40;;;;;;10861744;32;20039;-71
2022/07/28 19:00:38;;;;;;;3.10;1.60;;;32.90;44.60;;;;;;10866005;32;20085;-71
2022/07/28 19:06:40;;;;;;;1.87;1.30;;;32.70;44.90;;;;;;10866776;32;20046;-71
2022/07/28 19:12:45;;;;;;;4.03;1.75;;;32.50;45.20;;;;;;10866402;32;20050;-71
2022/07/28 19:18:47;;;;;;;2.03;1.42;;;32.40;45.60;;;;;;10866322;32;20388;-71
2022/07/28 19:24:50;;;;;;;2.42;1.65;;;32.30;45.80;;;;;;10865794;32;20078;-71
2022/07/28 19:30:52;;;;;;;3.40;2.08;;;32.40;45.90;;;;;;10866158;32;20062;-71
2022/07/28 19:36:55;;;;;;;3.62;1.55;;;32.30;46.30;;;;;;10865860;32;20024;-71
2022/07/28 19:42:58;;;;;;;3.28;1.58;;;32.20;46.50;;;;;;10866269;32;20329;-71
2022/07/28 19:49:00;;;;;;;5.25;1.92;;;32.00;46.80;;;;;;10866048;32;20024;-71
2022/07/28 19:55:15;;;;;;;3.40;2.10;;;32.00;47.10;;;;;;10871756;32;20024;-71
2022/07/28 20:01:17;;;;;;;4.37;1.98;;;32.00;47.20;;;;;;10872539;32;20328;-71
2022/07/28 20:07:20;;;;;;;8.85;1.95;;;31.90;47.60;;;;;;10872283;32;20054;-71
2022/07/28 20:13:22;;;;;;;6.40;2.50;;;31.80;48.30;;;;;;10871883;32;20025;-71
2022/07/28 20:19:24;;;;;;;3.10;1.70;;;31.80;48.30;;;;;;10871761;32;20028;-71
2022/07/28 20:25:26;;;;;;;2.90;1.55;;;31.60;48.40;;;;;;10871737;32;20419;-71
2022/07/28 20:31:30;;;;;;;2.42;1.75;;;31.50;48.60;;;;;;10902800;27;20332;-71
2022/07/28 20:37:33;;;;;;;3.45;1.73;;;31.40;48.90;;;;;;10908544;32;20054;-71
2022/07/28 20:43:36;;;;;;;2.28;1.37;;;31.30;49.00;;;;;;10895093;32;20073;-71
2022/07/28 20:49:38;;;;;;;2.42;1.45;;;31.30;49.10;;;;;;10908261;32;20023;-71
2022/07/28 20:55:41;;;;;;;4.18;2.03;;;31.30;49.20;;;;;;10907937;32;20054;-71
2022/07/28 21:01:43;;;;;;;4.30;2.22;;;31.30;49.20;;;;;;10903260;32;20053;-72
2022/07/28 21:07:46;;;;;;;3.70;2.12;;;31.20;49.70;;;;;;10907508;32;20035;-72
2022/07/28 21:13:48;;;;;;;2.92;2.12;;;31.20;49.80;;;;;;10907392;32;20049;-72
2022/07/28 21:19:50;;;;;;;3.33;1.62;;;31.20;50.10;;;;;;10893547;32;20426;-71
2022/07/28 21:25:53;;;;;;;4.37;1.95;;;31.10;50.10;;;;;;10904906;32;20063;-71
2022/07/28 21:31:56;;;;;;;1.98;1.60;;;31.00;50.60;;;;;;10872944;32;20066;-71
2022/07/28 21:37:58;;;;;;;3.72;2.30;;;31.00;50.60;;;;;;10869160;32;20423;-71
2022/07/28 21:44:01;;;;;;;2.70;1.90;;;30.80;50.90;;;;;;10868038;32;20078;-71
2022/07/28 21:50:04;;;;;;;4.30;2.35;;;30.80;50.90;;;;;;10868623;32;20027;-71
2022/07/28 21:56:59;;;;;;;5.00;2.10;;;30.70;51.40;;;;;;10866049;32;20035;-71
2022/07/28 22:03:01;;;;;;;3.72;2.25;;;30.70;51.90;;;;;;10868248;32;20340;-71
2022/07/28 22:09:03;;;;;;;2.78;2.08;;;30.60;51.80;;;;;;10867983;32;20028;-71
2022/07/28 22:15:06;;;;;;;3.62;2.05;;;30.60;51.80;;;;;;10867339;32;20098;-71
2022/07/28 22:21:08;;;;;;;3.08;2.00;;;30.40;52.00;;;;;;10867715;32;20042;-71
2022/07/28 22:27:10;;;;;;;2.42;1.67;;;30.40;52.00;;;;;;10867519;32;20113;-71
2022/07/28 22:33:12;;;;;;;3.47;2.08;;;30.30;52.20;;;;;;10867483;32;20019;-72
2022/07/28 22:39:14;;;;;;;3.70;2.10;;;30.20;52.40;;;;;;10867095;32;20035;-72
2022/07/28 22:45:16;;;;;;;2.33;1.87;;;30.20;52.70;;;;;;10867107;32;20031;-72
2022/07/28 22:51:18;;;;;;;4.72;2.87;;;30.20;52.90;;;;;;10867011;32;20062;-72
2022/07/28 22:57:21;;;;;;;5.20;3.42;;;30.20;52.80;;;;;;10866992;32;20093;-72
2022/07/28 23:03:23;;;;;;;4.00;2.83;;;30.10;52.80;;;;;;10866744;32;20035;-72
2022/07/28 23:09:26;;;;;;;4.00;2.70;;;30.10;53.10;;;;;;10866754;32;20058;-72
2022/07/28 23:15:28;;;;;;;5.43;3.55;;;30.00;53.40;;;;;;10866632;32;20024;-72
2022/07/28 23:21:30;;;;;;;3.80;2.72;;;30.00;53.30;;;;;;10866424;32;20166;-72
2022/07/28 23:27:32;;;;;;;4.95;2.60;;;29.90;53.30;;;;;;10870800;32;20301;-72
2022/07/28 23:33:36;;;;;;;3.75;2.53;;;29.80;53.50;;;;;;10873455;32;20015;-72
2022/07/28 23:39:38;;;;;;;3.37;2.12;;;29.50;53.80;;;;;;10873171;32;20035;-72
2022/07/28 23:45:40;;;;;;;4.32;2.58;;;29.30;54.00;;;;;;10873178;32;20082;-72
2022/07/28 23:51:42;;;;;;;4.70;2.28;;;29.10;54.10;;;;;;10872901;32;20024;-72
2022/07/28 23:57:44;;;;;;;3.70;2.28;;;28.90;54.40;;;;;;10872669;32;20066;-72
